sensor_id;sensor_type;location;lat;lon;timestamp;P1;durP1;ratioP1;P2;durP2;ratioP2
75220;SDS011;63802;53.232;6.570;2023-09-08T00:02:26;12.25;;;6.03;;
75220;SDS011;63802;53.232;6.570;2023-09-08T00:04:52;10.02;;;6.53;;
75220;SDS011;63802;53.232;6.570;2023-09-08T00:07:18;13.10;;;6.25;;
75220;SDS011;63802;53.232;6.570;2023-09-08T00:09:44;13.82;;;6.55;;
75220;SDS011;63802;53.232;6.570;2023-09-08T00:12:10;15.10;;;6.85;;
75220;SDS011;63802;53.232;6.570;2023-09-08T00:14:35;13.57;;;7.28;;
75220;SDS011;63802;53.232;6.570;2023-09-08T00:17:01;10.88;;;6.70;;
75220;SDS011;63802;53.232;6.570;2023-09-08T00:19:26;12.40;;;6.75;;
75220;SDS011;63802;53.232;6.570;2023-09-08T00:21:52;10.45;;;6.22;;
75220;SDS011;63802;53.232;6.570;2023-09-08T00:24:18;13.32;;;7.38;;
75220;SDS011;63802;53.232;6.570;2023-09-08T00:26:43;12.23;;;6.90;;
75220;SDS011;63802;53.232;6.570;2023-09-08T00:29:09;11.73;;;6.55;;
75220;SDS011;63802;53.232;6.570;2023-09-08T00:31:34;13.05;;;6.88;;
75220;SDS011;63802;53.232;6.570;2023-09-08T00:33:59;13.98;;;7.53;;
75220;SDS011;63802;53.232;6.570;2023-09-08T00:36:25;11.57;;;7.00;;
75220;SDS011;63802;53.232;6.570;2023-09-08T00:38:51;12.10;;;6.68;;
75220;SDS011;63802;53.232;6.570;2023-09-08T00:41:16;13.23;;;7.07;;
75220;SDS011;63802;53.232;6.570;2023-09-08T00:43:41;13.88;;;7.28;;
75220;SDS011;63802;53.232;6.570;2023-09-08T00:46:07;14.77;;;7.60;;
75220;SDS011;63802;53.232;6.570;2023-09-08T00:48:34;13.15;;;6.88;;
75220;SDS011;63802;53.232;6.570;2023-09-08T00:50:59;11.27;;;6.93;;
75220;SDS011;63802;53.232;6.570;2023-09-08T00:53:25;11.43;;;7.47;;
75220;SDS011;63802;53.232;6.570;2023-09-08T00:55:51;10.93;;;7.05;;
75220;SDS011;63802;53.232;6.570;2023-09-08T00:58:17;10.63;;;6.72;;
75220;SDS011;63802;53.232;6.570;2023-09-08T01:00:43;11.55;;;6.88;;
75220;SDS011;63802;53.232;6.570;2023-09-08T01:03:09;13.02;;;7.28;;
75220;SDS011;63802;53.232;6.570;2023-09-08T01:05:36;12.35;;;7.15;;
75220;SDS011;63802;53.232;6.570;2023-09-08T01:08:01;12.77;;;7.20;;
75220;SDS011;63802;53.232;6.570;2023-09-08T01:10:27;10.63;;;6.90;;
75220;SDS011;63802;53.232;6.570;2023-09-08T01:12:53;14.77;;;7.40;;
75220;SDS011;63802;53.232;6.570;2023-09-08T01:15:18;11.52;;;6.78;;
75220;SDS011;63802;53.232;6.570;2023-09-08T01:17:44;11.38;;;7.30;;
75220;SDS011;63802;53.232;6.570;2023-09-08T01:20:13;15.48;;;7.75;;
75220;SDS011;63802;53.232;6.570;2023-09-08T01:25:45;11.88;;;7.18;;
75220;SDS011;63802;53.232;6.570;2023-09-08T01:28:15;11.40;;;6.72;;
75220;SDS011;63802;53.232;6.570;2023-09-08T01:30:42;10.35;;;7.18;;
75220;SDS011;63802;53.232;6.570;2023-09-08T01:33:08;11.82;;;6.82;;
75220;SDS011;63802;53.232;6.570;2023-09-08T01:35:34;12.43;;;7.70;;
75220;SDS011;63802;53.232;6.570;2023-09-08T01:38:00;14.73;;;8.50;;
75220;SDS011;63802;53.232;6.570;2023-09-08T01:40:25;13.77;;;7.63;;
75220;SDS011;63802;53.232;6.570;2023-09-08T01:42:51;12.07;;;7.10;;
75220;SDS011;63802;53.232;6.570;2023-09-08T01:45:16;12.75;;;7.43;;
75220;SDS011;63802;53.232;6.570;2023-09-08T01:47:42;14.38;;;7.32;;
75220;SDS011;63802;53.232;6.570;2023-09-08T01:50:07;11.13;;;6.75;;
75220;SDS011;63802;53.232;6.570;2023-09-08T01:52:33;12.00;;;7.43;;
75220;SDS011;63802;53.232;6.570;2023-09-08T01:54:58;12.48;;;7.53;;
75220;SDS011;63802;53.232;6.570;2023-09-08T01:57:24;14.02;;;7.10;;
75220;SDS011;63802;53.232;6.570;2023-09-08T01:59:49;12.27;;;7.50;;
75220;SDS011;63802;53.232;6.570;2023-09-08T02:02:15;13.82;;;7.25;;
75220;SDS011;63802;53.232;6.570;2023-09-08T02:04:40;15.50;;;7.57;;
75220;SDS011;63802;53.232;6.570;2023-09-08T02:07:05;13.77;;;7.57;;
75220;SDS011;63802;53.232;6.570;2023-09-08T02:09:31;14.82;;;7.82;;
75220;SDS011;63802;53.232;6.570;2023-09-08T02:12:01;12.73;;;7.60;;
75220;SDS011;63802;53.232;6.570;2023-09-08T02:14:27;11.35;;;7.40;;
75220;SDS011;63802;53.232;6.570;2023-09-08T02:16:56;16.38;;;7.82;;
75220;SDS011;63802;53.232;6.570;2023-09-08T02:19:22;13.32;;;8.20;;
75220;SDS011;63802;53.232;6.570;2023-09-08T02:21:48;14.85;;;8.15;;
75220;SDS011;63802;53.232;6.570;2023-09-08T02:24:13;12.57;;;7.75;;
75220;SDS011;63802;53.232;6.570;2023-09-08T02:26:39;11.93;;;7.43;;
75220;SDS011;63802;53.232;6.570;2023-09-08T02:29:04;12.38;;;7.60;;
75220;SDS011;63802;53.232;6.570;2023-09-08T02:31:30;11.77;;;7.13;;
75220;SDS011;63802;53.232;6.570;2023-09-08T02:33:55;13.68;;;8.15;;
75220;SDS011;63802;53.232;6.570;2023-09-08T02:36:21;13.25;;;7.47;;
75220;SDS011;63802;53.232;6.570;2023-09-08T02:38:53;12.70;;;7.72;;
75220;SDS011;63802;53.232;6.570;2023-09-08T02:41:19;14.13;;;8.05;;
75220;SDS011;63802;53.232;6.570;2023-09-08T02:43:45;14.35;;;7.63;;
75220;SDS011;63802;53.232;6.570;2023-09-08T02:46:11;15.02;;;8.07;;
75220;SDS011;63802;53.232;6.570;2023-09-08T02:48:37;13.30;;;7.35;;
75220;SDS011;63802;53.232;6.570;2023-09-08T02:51:03;13.80;;;8.68;;
75220;SDS011;63802;53.232;6.570;2023-09-08T02:53:29;16.13;;;8.43;;
75220;SDS011;63802;53.232;6.570;2023-09-08T02:55:55;14.45;;;7.85;;
75220;SDS011;63802;53.232;6.570;2023-09-08T02:58:21;14.27;;;8.30;;
75220;SDS011;63802;53.232;6.570;2023-09-08T03:00:47;15.88;;;8.63;;
75220;SDS011;63802;53.232;6.570;2023-09-08T03:03:13;14.80;;;8.25;;
75220;SDS011;63802;53.232;6.570;2023-09-08T03:05:38;15.02;;;7.95;;
75220;SDS011;63802;53.232;6.570;2023-09-08T03:08:04;15.57;;;8.13;;
75220;SDS011;63802;53.232;6.570;2023-09-08T03:10:30;14.32;;;8.40;;
75220;SDS011;63802;53.232;6.570;2023-09-08T03:12:59;14.05;;;8.07;;
75220;SDS011;63802;53.232;6.570;2023-09-08T03:15:25;17.65;;;8.00;;
75220;SDS011;63802;53.232;6.570;2023-09-08T03:17:53;13.95;;;8.25;;
75220;SDS011;63802;53.232;6.570;2023-09-08T03:20:23;16.00;;;8.48;;
75220;SDS011;63802;53.232;6.570;2023-09-08T03:22:49;14.60;;;8.82;;
75220;SDS011;63802;53.232;6.570;2023-09-08T03:25:14;12.55;;;8.07;;
75220;SDS011;63802;53.232;6.570;2023-09-08T03:27:40;16.15;;;8.98;;
75220;SDS011;63802;53.232;6.570;2023-09-08T03:30:06;14.88;;;8.68;;
75220;SDS011;63802;53.232;6.570;2023-09-08T03:32:32;12.60;;;7.97;;
75220;SDS011;63802;53.232;6.570;2023-09-08T03:34:58;14.20;;;8.65;;
75220;SDS011;63802;53.232;6.570;2023-09-08T03:37:23;20.55;;;9.15;;
75220;SDS011;63802;53.232;6.570;2023-09-08T03:39:51;15.70;;;8.85;;
75220;SDS011;63802;53.232;6.570;2023-09-08T03:42:17;16.98;;;8.85;;
75220;SDS011;63802;53.232;6.570;2023-09-08T03:44:42;17.02;;;9.20;;
75220;SDS011;63802;53.232;6.570;2023-09-08T03:47:07;16.90;;;8.80;;
75220;SDS011;63802;53.232;6.570;2023-09-08T03:49:33;14.27;;;8.93;;
75220;SDS011;63802;53.232;6.570;2023-09-08T03:51:58;15.05;;;8.55;;
75220;SDS011;63802;53.232;6.570;2023-09-08T03:54:24;18.58;;;9.07;;
75220;SDS011;63802;53.232;6.570;2023-09-08T03:56:49;14.52;;;9.07;;
75220;SDS011;63802;53.232;6.570;2023-09-08T03:59:15;15.20;;;9.43;;
75220;SDS011;63802;53.232;6.570;2023-09-08T04:01:40;15.77;;;9.15;;
75220;SDS011;63802;53.232;6.570;2023-09-08T04:04:06;18.02;;;10.05;;
75220;SDS011;63802;53.232;6.570;2023-09-08T04:06:31;14.82;;;9.05;;
75220;SDS011;63802;53.232;6.570;2023-09-08T04:08:56;18.50;;;9.05;;
75220;SDS011;63802;53.232;6.570;2023-09-08T04:11:22;18.38;;;9.35;;
75220;SDS011;63802;53.232;6.570;2023-09-08T04:13:47;13.98;;;9.00;;
75220;SDS011;63802;53.232;6.570;2023-09-08T04:16:12;17.50;;;8.85;;
75220;SDS011;63802;53.232;6.570;2023-09-08T04:18:38;17.27;;;9.45;;
75220;SDS011;63802;53.232;6.570;2023-09-08T04:21:05;15.18;;;9.27;;
75220;SDS011;63802;53.232;6.570;2023-09-08T04:23:32;15.40;;;8.95;;
75220;SDS011;63802;53.232;6.570;2023-09-08T04:25:57;17.40;;;9.20;;
75220;SDS011;63802;53.232;6.570;2023-09-08T04:28:23;17.27;;;10.25;;
75220;SDS011;63802;53.232;6.570;2023-09-08T04:30:49;16.77;;;9.95;;
75220;SDS011;63802;53.232;6.570;2023-09-08T04:33:14;16.90;;;9.48;;
75220;SDS011;63802;53.232;6.570;2023-09-08T04:35:40;15.75;;;9.63;;
75220;SDS011;63802;53.232;6.570;2023-09-08T04:38:05;15.68;;;9.45;;
75220;SDS011;63802;53.232;6.570;2023-09-08T04:40:30;16.40;;;9.70;;
75220;SDS011;63802;53.232;6.570;2023-09-08T04:42:56;17.08;;;10.00;;
75220;SDS011;63802;53.232;6.570;2023-09-08T04:45:21;18.30;;;10.05;;
75220;SDS011;63802;53.232;6.570;2023-09-08T04:47:47;20.90;;;9.80;;
75220;SDS011;63802;53.232;6.570;2023-09-08T04:50:12;17.65;;;11.27;;
75220;SDS011;63802;53.232;6.570;2023-09-08T04:52:37;18.50;;;10.07;;
75220;SDS011;63802;53.232;6.570;2023-09-08T04:55:03;18.30;;;10.15;;
75220;SDS011;63802;53.232;6.570;2023-09-08T04:57:29;17.05;;;10.05;;
75220;SDS011;63802;53.232;6.570;2023-09-08T04:59:54;18.60;;;9.88;;
75220;SDS011;63802;53.232;6.570;2023-09-08T05:02:20;17.92;;;9.68;;
75220;SDS011;63802;53.232;6.570;2023-09-08T05:04:46;17.17;;;10.55;;
75220;SDS011;63802;53.232;6.570;2023-09-08T05:07:11;16.95;;;10.45;;
75220;SDS011;63802;53.232;6.570;2023-09-08T05:09:38;16.27;;;9.52;;
75220;SDS011;63802;53.232;6.570;2023-09-08T05:12:03;16.00;;;9.60;;
75220;SDS011;63802;53.232;6.570;2023-09-08T05:14:29;20.27;;;10.55;;
75220;SDS011;63802;53.232;6.570;2023-09-08T05:16:54;18.38;;;10.20;;
75220;SDS011;63802;53.232;6.570;2023-09-08T05:19:21;19.23;;;9.80;;
75220;SDS011;63802;53.232;6.570;2023-09-08T05:21:49;16.15;;;9.73;;
75220;SDS011;63802;53.232;6.570;2023-09-08T05:24:15;19.70;;;10.27;;
75220;SDS011;63802;53.232;6.570;2023-09-08T05:26:41;17.15;;;10.10;;
75220;SDS011;63802;53.232;6.570;2023-09-08T05:29:06;19.88;;;10.55;;
75220;SDS011;63802;53.232;6.570;2023-09-08T05:31:32;17.70;;;10.18;;
75220;SDS011;63802;53.232;6.570;2023-09-08T05:33:57;17.92;;;9.95;;
75220;SDS011;63802;53.232;6.570;2023-09-08T05:36:23;16.67;;;9.85;;
75220;SDS011;63802;53.232;6.570;2023-09-08T05:38:48;19.23;;;10.68;;
75220;SDS011;63802;53.232;6.570;2023-09-08T05:41:13;17.27;;;10.38;;
75220;SDS011;63802;53.232;6.570;2023-09-08T05:43:39;18.55;;;10.68;;
75220;SDS011;63802;53.232;6.570;2023-09-08T05:46:04;16.15;;;10.15;;
75220;SDS011;63802;53.232;6.570;2023-09-08T05:48:30;19.15;;;10.48;;
75220;SDS011;63802;53.232;6.570;2023-09-08T05:50:56;18.25;;;10.68;;
75220;SDS011;63802;53.232;6.570;2023-09-08T05:53:21;19.73;;;10.55;;
75220;SDS011;63802;53.232;6.570;2023-09-08T05:55:47;16.08;;;9.70;;
75220;SDS011;63802;53.232;6.570;2023-09-08T05:58:12;18.02;;;10.02;;
75220;SDS011;63802;53.232;6.570;2023-09-08T06:00:38;20.13;;;10.57;;
75220;SDS011;63802;53.232;6.570;2023-09-08T06:03:03;15.25;;;9.35;;
75220;SDS011;63802;53.232;6.570;2023-09-08T06:05:29;14.75;;;9.68;;
75220;SDS011;63802;53.232;6.570;2023-09-08T06:07:54;17.58;;;9.75;;
75220;SDS011;63802;53.232;6.570;2023-09-08T06:10:19;15.68;;;9.55;;
75220;SDS011;63802;53.232;6.570;2023-09-08T06:12:45;19.85;;;10.02;;
75220;SDS011;63802;53.232;6.570;2023-09-08T06:15:10;16.15;;;9.68;;
75220;SDS011;63802;53.232;6.570;2023-09-08T06:17:36;16.15;;;10.15;;
75220;SDS011;63802;53.232;6.570;2023-09-08T06:20:02;16.30;;;9.77;;
75220;SDS011;63802;53.232;6.570;2023-09-08T06:22:27;16.58;;;9.43;;
75220;SDS011;63802;53.232;6.570;2023-09-08T06:24:53;16.75;;;9.63;;
75220;SDS011;63802;53.232;6.570;2023-09-08T06:27:18;16.95;;;9.27;;
75220;SDS011;63802;53.232;6.570;2023-09-08T06:29:44;15.15;;;8.95;;
75220;SDS011;63802;53.232;6.570;2023-09-08T06:32:09;14.38;;;8.27;;
75220;SDS011;63802;53.232;6.570;2023-09-08T06:34:36;17.13;;;9.52;;
75220;SDS011;63802;53.232;6.570;2023-09-08T06:37:01;19.58;;;9.65;;
75220;SDS011;63802;53.232;6.570;2023-09-08T06:39:27;18.25;;;8.98;;
75220;SDS011;63802;53.232;6.570;2023-09-08T06:41:52;14.48;;;8.40;;
75220;SDS011;63802;53.232;6.570;2023-09-08T06:44:19;16.40;;;8.65;;
75220;SDS011;63802;53.232;6.570;2023-09-08T06:46:45;14.23;;;9.15;;
75220;SDS011;63802;53.232;6.570;2023-09-08T06:49:10;15.27;;;8.55;;
75220;SDS011;63802;53.232;6.570;2023-09-08T06:51:36;15.25;;;9.18;;
75220;SDS011;63802;53.232;6.570;2023-09-08T06:54:02;14.88;;;8.60;;
75220;SDS011;63802;53.232;6.570;2023-09-08T06:56:28;13.90;;;8.18;;
75220;SDS011;63802;53.232;6.570;2023-09-08T06:58:53;13.75;;;7.65;;
75220;SDS011;63802;53.232;6.570;2023-09-08T07:01:18;15.13;;;8.30;;
75220;SDS011;63802;53.232;6.570;2023-09-08T07:03:44;17.00;;;8.82;;
75220;SDS011;63802;53.232;6.570;2023-09-08T07:06:10;15.80;;;8.20;;
75220;SDS011;63802;53.232;6.570;2023-09-08T07:08:35;11.45;;;7.35;;
75220;SDS011;63802;53.232;6.570;2023-09-08T07:11:01;16.20;;;8.35;;
75220;SDS011;63802;53.232;6.570;2023-09-08T07:13:27;14.07;;;7.53;;
75220;SDS011;63802;53.232;6.570;2023-09-08T07:15:52;15.00;;;7.57;;
75220;SDS011;63802;53.232;6.570;2023-09-08T07:18:18;16.65;;;8.43;;
75220;SDS011;63802;53.232;6.570;2023-09-08T07:20:47;12.25;;;8.00;;
75220;SDS011;63802;53.232;6.570;2023-09-08T07:23:18;15.75;;;8.20;;
75220;SDS011;63802;53.232;6.570;2023-09-08T07:25:47;17.45;;;7.63;;
75220;SDS011;63802;53.232;6.570;2023-09-08T07:28:14;10.93;;;6.75;;
75220;SDS011;63802;53.232;6.570;2023-09-08T07:30:40;14.60;;;6.88;;
75220;SDS011;63802;53.232;6.570;2023-09-08T07:33:05;10.65;;;7.05;;
75220;SDS011;63802;53.232;6.570;2023-09-08T07:35:31;9.63;;;5.47;;
75220;SDS011;63802;53.232;6.570;2023-09-08T07:37:56;15.65;;;7.45;;
75220;SDS011;63802;53.232;6.570;2023-09-08T07:40:22;12.60;;;6.93;;
75220;SDS011;63802;53.232;6.570;2023-09-08T07:42:48;14.50;;;7.18;;
75220;SDS011;63802;53.232;6.570;2023-09-08T07:45:13;14.65;;;7.50;;
75220;SDS011;63802;53.232;6.570;2023-09-08T07:47:39;11.80;;;7.63;;
75220;SDS011;63802;53.232;6.570;2023-09-08T07:50:24;10.70;;;7.10;;
75220;SDS011;63802;53.232;6.570;2023-09-08T07:52:52;12.50;;;6.90;;
75220;SDS011;63802;53.232;6.570;2023-09-08T07:55:19;12.82;;;6.63;;
75220;SDS011;63802;53.232;6.570;2023-09-08T07:57:48;13.68;;;7.55;;
75220;SDS011;63802;53.232;6.570;2023-09-08T08:00:15;12.70;;;7.43;;
75220;SDS011;63802;53.232;6.570;2023-09-08T08:02:43;13.77;;;6.68;;
75220;SDS011;63802;53.232;6.570;2023-09-08T08:05:10;11.32;;;6.90;;
75220;SDS011;63802;53.232;6.570;2023-09-08T08:07:35;17.25;;;6.82;;
75220;SDS011;63802;53.232;6.570;2023-09-08T08:10:01;12.48;;;6.07;;
75220;SDS011;63802;53.232;6.570;2023-09-08T08:12:26;10.40;;;6.03;;
75220;SDS011;63802;53.232;6.570;2023-09-08T08:14:52;13.45;;;6.57;;
75220;SDS011;63802;53.232;6.570;2023-09-08T08:17:17;10.88;;;5.85;;
75220;SDS011;63802;53.232;6.570;2023-09-08T08:19:44;10.43;;;5.97;;
75220;SDS011;63802;53.232;6.570;2023-09-08T08:22:10;11.00;;;6.10;;
75220;SDS011;63802;53.232;6.570;2023-09-08T08:24:36;11.25;;;5.65;;
75220;SDS011;63802;53.232;6.570;2023-09-08T08:27:02;12.63;;;5.55;;
75220;SDS011;63802;53.232;6.570;2023-09-08T08:29:28;8.32;;;5.00;;
75220;SDS011;63802;53.232;6.570;2023-09-08T08:31:54;8.20;;;4.97;;
75220;SDS011;63802;53.232;6.570;2023-09-08T08:34:19;11.95;;;4.78;;
75220;SDS011;63802;53.232;6.570;2023-09-08T08:36:45;9.70;;;5.55;;
75220;SDS011;63802;53.232;6.570;2023-09-08T08:39:10;10.57;;;5.03;;
75220;SDS011;63802;53.232;6.570;2023-09-08T08:41:36;7.35;;;4.80;;
75220;SDS011;63802;53.232;6.570;2023-09-08T08:44:05;6.83;;;4.57;;
75220;SDS011;63802;53.232;6.570;2023-09-08T08:46:32;14.10;;;5.07;;
75220;SDS011;63802;53.232;6.570;2023-09-08T08:49:00;8.73;;;5.15;;
75220;SDS011;63802;53.232;6.570;2023-09-08T08:51:27;11.83;;;5.20;;
75220;SDS011;63802;53.232;6.570;2023-09-08T08:53:55;14.55;;;5.35;;
75220;SDS011;63802;53.232;6.570;2023-09-08T08:56:20;7.95;;;4.97;;
75220;SDS011;63802;53.232;6.570;2023-09-08T08:58:47;10.60;;;4.97;;
75220;SDS011;63802;53.232;6.570;2023-09-08T09:01:15;7.70;;;4.82;;
75220;SDS011;63802;53.232;6.570;2023-09-08T09:03:41;9.52;;;4.80;;
75220;SDS011;63802;53.232;6.570;2023-09-08T09:06:09;8.00;;;4.72;;
75220;SDS011;63802;53.232;6.570;2023-09-08T09:08:35;7.30;;;4.57;;
75220;SDS011;63802;53.232;6.570;2023-09-08T09:11:02;10.95;;;4.97;;
75220;SDS011;63802;53.232;6.570;2023-09-08T09:13:27;11.40;;;4.78;;
75220;SDS011;63802;53.232;6.570;2023-09-08T09:15:53;8.45;;;4.97;;
75220;SDS011;63802;53.232;6.570;2023-09-08T09:18:24;9.90;;;4.20;;
75220;SDS011;63802;53.232;6.570;2023-09-08T09:20:53;10.32;;;5.28;;
75220;SDS011;63802;53.232;6.570;2023-09-08T09:23:26;10.73;;;4.80;;
75220;SDS011;63802;53.232;6.570;2023-09-08T09:25:55;8.32;;;5.05;;
75220;SDS011;63802;53.232;6.570;2023-09-08T09:28:20;8.95;;;4.75;;
75220;SDS011;63802;53.232;6.570;2023-09-08T09:30:47;8.50;;;5.05;;
75220;SDS011;63802;53.232;6.570;2023-09-08T09:33:14;6.80;;;4.45;;
75220;SDS011;63802;53.232;6.570;2023-09-08T09:35:44;10.70;;;4.55;;
75220;SDS011;63802;53.232;6.570;2023-09-08T09:38:10;7.05;;;4.75;;
75220;SDS011;63802;53.232;6.570;2023-09-08T09:40:36;8.07;;;5.32;;
75220;SDS011;63802;53.232;6.570;2023-09-08T09:43:02;9.60;;;4.43;;
75220;SDS011;63802;53.232;6.570;2023-09-08T09:45:29;9.00;;;4.40;;
75220;SDS011;63802;53.232;6.570;2023-09-08T09:47:56;8.82;;;4.28;;
75220;SDS011;63802;53.232;6.570;2023-09-08T09:50:37;7.10;;;4.70;;
75220;SDS011;63802;53.232;6.570;2023-09-08T09:53:09;7.63;;;4.40;;
75220;SDS011;63802;53.232;6.570;2023-09-08T09:55:41;9.77;;;4.82;;
75220;SDS011;63802;53.232;6.570;2023-09-08T09:58:08;9.13;;;4.80;;
75220;SDS011;63802;53.232;6.570;2023-09-08T10:00:39;7.43;;;4.63;;
75220;SDS011;63802;53.232;6.570;2023-09-08T10:03:12;6.63;;;4.65;;
75220;SDS011;63802;53.232;6.570;2023-09-08T10:05:38;10.73;;;4.70;;
75220;SDS011;63802;53.232;6.570;2023-09-08T10:08:04;7.20;;;4.53;;
75220;SDS011;63802;53.232;6.570;2023-09-08T10:10:30;6.82;;;4.07;;
75220;SDS011;63802;53.232;6.570;2023-09-08T10:13:01;6.95;;;4.80;;
75220;SDS011;63802;53.232;6.570;2023-09-08T10:15:28;6.00;;;4.13;;
75220;SDS011;63802;53.232;6.570;2023-09-08T10:17:56;5.72;;;4.30;;
75220;SDS011;63802;53.232;6.570;2023-09-08T10:20:25;8.48;;;4.55;;
75220;SDS011;63802;53.232;6.570;2023-09-08T10:22:53;7.13;;;4.38;;
75220;SDS011;63802;53.232;6.570;2023-09-08T10:25:26;6.32;;;4.60;;
75220;SDS011;63802;53.232;6.570;2023-09-08T10:27:56;6.55;;;4.70;;
75220;SDS011;63802;53.232;6.570;2023-09-08T10:30:22;8.15;;;4.53;;
75220;SDS011;63802;53.232;6.570;2023-09-08T10:32:48;10.30;;;4.53;;
75220;SDS011;63802;53.232;6.570;2023-09-08T10:35:15;12.70;;;4.65;;
75220;SDS011;63802;53.232;6.570;2023-09-08T10:37:43;7.03;;;4.57;;
75220;SDS011;63802;53.232;6.570;2023-09-08T10:40:22;6.70;;;4.25;;
75220;SDS011;63802;53.232;6.570;2023-09-08T10:42:49;9.23;;;4.55;;
75220;SDS011;63802;53.232;6.570;2023-09-08T10:45:15;6.18;;;4.03;;
75220;SDS011;63802;53.232;6.570;2023-09-08T10:50:17;6.43;;;4.25;;
75220;SDS011;63802;53.232;6.570;2023-09-08T10:52:43;7.38;;;4.30;;
75220;SDS011;63802;53.232;6.570;2023-09-08T10:55:10;7.40;;;4.70;;
75220;SDS011;63802;53.232;6.570;2023-09-08T10:57:38;9.38;;;4.20;;
75220;SDS011;63802;53.232;6.570;2023-09-08T11:00:10;10.07;;;4.50;;
75220;SDS011;63802;53.232;6.570;2023-09-08T11:02:47;6.82;;;4.30;;
75220;SDS011;63802;53.232;6.570;2023-09-08T11:05:14;7.50;;;4.32;;
75220;SDS011;63802;53.232;6.570;2023-09-08T11:07:41;7.78;;;4.10;;
75220;SDS011;63802;53.232;6.570;2023-09-08T11:10:08;7.85;;;4.03;;
75220;SDS011;63802;53.232;6.570;2023-09-08T11:12:34;7.68;;;4.20;;
75220;SDS011;63802;53.232;6.570;2023-09-08T11:15:04;6.35;;;4.40;;
75220;SDS011;63802;53.232;6.570;2023-09-08T11:17:32;7.32;;;4.18;;
75220;SDS011;63802;53.232;6.570;2023-09-08T11:19:59;8.90;;;4.68;;
75220;SDS011;63802;53.232;6.570;2023-09-08T11:22:26;10.00;;;4.25;;
75220;SDS011;63802;53.232;6.570;2023-09-08T11:24:52;5.80;;;4.05;;
75220;SDS011;63802;53.232;6.570;2023-09-08T11:27:18;7.82;;;4.65;;
75220;SDS011;63802;53.232;6.570;2023-09-08T11:29:45;6.88;;;4.28;;
75220;SDS011;63802;53.232;6.570;2023-09-08T11:32:11;7.88;;;4.28;;
75220;SDS011;63802;53.232;6.570;2023-09-08T11:34:37;6.78;;;4.20;;
75220;SDS011;63802;53.232;6.570;2023-09-08T11:37:12;9.30;;;4.43;;
75220;SDS011;63802;53.232;6.570;2023-09-08T11:39:39;6.80;;;4.40;;
75220;SDS011;63802;53.232;6.570;2023-09-08T11:42:05;7.57;;;4.43;;
75220;SDS011;63802;53.232;6.570;2023-09-08T11:44:33;9.00;;;4.32;;
75220;SDS011;63802;53.232;6.570;2023-09-08T11:47:04;6.53;;;4.32;;
75220;SDS011;63802;53.232;6.570;2023-09-08T11:49:37;7.13;;;4.13;;
75220;SDS011;63802;53.232;6.570;2023-09-08T11:52:06;6.45;;;4.00;;
75220;SDS011;63802;53.232;6.570;2023-09-08T11:54:32;8.13;;;4.65;;
75220;SDS011;63802;53.232;6.570;2023-09-08T11:57:01;7.93;;;4.07;;
75220;SDS011;63802;53.232;6.570;2023-09-08T11:59:30;7.32;;;4.13;;
75220;SDS011;63802;53.232;6.570;2023-09-08T12:01:57;9.35;;;4.50;;
75220;SDS011;63802;53.232;6.570;2023-09-08T12:04:23;6.65;;;3.80;;
75220;SDS011;63802;53.232;6.570;2023-09-08T12:06:49;6.10;;;4.03;;
75220;SDS011;63802;53.232;6.570;2023-09-08T12:09:17;7.18;;;5.03;;
75220;SDS011;63802;53.232;6.570;2023-09-08T12:11:44;7.95;;;4.60;;
75220;SDS011;63802;53.232;6.570;2023-09-08T12:14:13;8.15;;;4.20;;
75220;SDS011;63802;53.232;6.570;2023-09-08T12:16:39;5.35;;;4.05;;
75220;SDS011;63802;53.232;6.570;2023-09-08T12:19:06;7.50;;;3.70;;
75220;SDS011;63802;53.232;6.570;2023-09-08T12:21:53;7.72;;;4.15;;
75220;SDS011;63802;53.232;6.570;2023-09-08T12:24:20;6.85;;;4.30;;
75220;SDS011;63802;53.232;6.570;2023-09-08T12:27:05;5.75;;;4.07;;
75220;SDS011;63802;53.232;6.570;2023-09-08T12:29:31;8.38;;;4.07;;
75220;SDS011;63802;53.232;6.570;2023-09-08T12:31:56;6.30;;;4.40;;
75220;SDS011;63802;53.232;6.570;2023-09-08T12:34:22;6.68;;;4.15;;
75220;SDS011;63802;53.232;6.570;2023-09-08T12:36:47;5.40;;;3.90;;
75220;SDS011;63802;53.232;6.570;2023-09-08T12:39:12;9.07;;;4.22;;
75220;SDS011;63802;53.232;6.570;2023-09-08T12:41:38;10.45;;;4.20;;
75220;SDS011;63802;53.232;6.570;2023-09-08T12:44:05;11.07;;;4.30;;
75220;SDS011;63802;53.232;6.570;2023-09-08T12:46:30;5.32;;;3.90;;
75220;SDS011;63802;53.232;6.570;2023-09-08T12:48:57;9.90;;;4.13;;
75220;SDS011;63802;53.232;6.570;2023-09-08T12:51:22;7.80;;;4.10;;
75220;SDS011;63802;53.232;6.570;2023-09-08T12:53:47;8.75;;;4.10;;
75220;SDS011;63802;53.232;6.570;2023-09-08T12:56:13;7.78;;;3.90;;
75220;SDS011;63802;53.232;6.570;2023-09-08T12:58:38;9.93;;;3.92;;
75220;SDS011;63802;53.232;6.570;2023-09-08T13:01:04;8.05;;;4.10;;
75220;SDS011;63802;53.232;6.570;2023-09-08T13:03:31;9.23;;;4.28;;
75220;SDS011;63802;53.232;6.570;2023-09-08T13:05:57;7.82;;;4.38;;
75220;SDS011;63802;53.232;6.570;2023-09-08T13:08:22;9.45;;;4.07;;
75220;SDS011;63802;53.232;6.570;2023-09-08T13:10:47;9.57;;;3.90;;
75220;SDS011;63802;53.232;6.570;2023-09-08T13:13:13;7.50;;;4.07;;
75220;SDS011;63802;53.232;6.570;2023-09-08T13:15:38;7.22;;;4.05;;
75220;SDS011;63802;53.232;6.570;2023-09-08T13:18:04;6.70;;;4.00;;
75220;SDS011;63802;53.232;6.570;2023-09-08T13:20:30;7.05;;;3.70;;
75220;SDS011;63802;53.232;6.570;2023-09-08T13:22:55;5.32;;;3.90;;
75220;SDS011;63802;53.232;6.570;2023-09-08T13:25:20;7.65;;;3.70;;
75220;SDS011;63802;53.232;6.570;2023-09-08T13:27:46;5.95;;;3.83;;
75220;SDS011;63802;53.232;6.570;2023-09-08T13:30:13;5.93;;;3.65;;
75220;SDS011;63802;53.232;6.570;2023-09-08T13:32:39;9.15;;;3.83;;
75220;SDS011;63802;53.232;6.570;2023-09-08T13:35:06;5.38;;;3.67;;
75220;SDS011;63802;53.232;6.570;2023-09-08T13:37:32;6.82;;;4.35;;
75220;SDS011;63802;53.232;6.570;2023-09-08T13:40:00;8.48;;;4.40;;
75220;SDS011;63802;53.232;6.570;2023-09-08T13:42:26;6.53;;;4.15;;
75220;SDS011;63802;53.232;6.570;2023-09-08T13:44:51;9.60;;;3.92;;
75220;SDS011;63802;53.232;6.570;2023-09-08T13:47:17;10.15;;;4.45;;
75220;SDS011;63802;53.232;6.570;2023-09-08T13:49:42;6.18;;;4.03;;
75220;SDS011;63802;53.232;6.570;2023-09-08T13:52:08;8.85;;;4.10;;
75220;SDS011;63802;53.232;6.570;2023-09-08T13:54:33;5.97;;;4.25;;
75220;SDS011;63802;53.232;6.570;2023-09-08T13:57:00;7.30;;;3.88;;
75220;SDS011;63802;53.232;6.570;2023-09-08T13:59:29;7.80;;;4.13;;
75220;SDS011;63802;53.232;6.570;2023-09-08T14:01:55;6.43;;;3.88;;
75220;SDS011;63802;53.232;6.570;2023-09-08T14:04:22;6.22;;;3.88;;
75220;SDS011;63802;53.232;6.570;2023-09-08T14:06:49;9.30;;;4.20;;
75220;SDS011;63802;53.232;6.570;2023-09-08T14:09:14;6.53;;;3.80;;
75220;SDS011;63802;53.232;6.570;2023-09-08T14:11:40;6.82;;;4.13;;
75220;SDS011;63802;53.232;6.570;2023-09-08T14:14:06;10.20;;;3.90;;
75220;SDS011;63802;53.232;6.570;2023-09-08T14:16:31;7.80;;;4.10;;
75220;SDS011;63802;53.232;6.570;2023-09-08T14:18:57;10.50;;;4.00;;
75220;SDS011;63802;53.232;6.570;2023-09-08T14:21:22;5.63;;;3.63;;
75220;SDS011;63802;53.232;6.570;2023-09-08T14:23:48;6.68;;;4.00;;
75220;SDS011;63802;53.232;6.570;2023-09-08T14:26:13;5.85;;;3.90;;
75220;SDS011;63802;53.232;6.570;2023-09-08T14:28:39;6.65;;;3.97;;
75220;SDS011;63802;53.232;6.570;2023-09-08T14:31:04;7.10;;;3.45;;
75220;SDS011;63802;53.232;6.570;2023-09-08T14:33:30;5.72;;;3.80;;
75220;SDS011;63802;53.232;6.570;2023-09-08T14:35:55;7.40;;;3.67;;
75220;SDS011;63802;53.232;6.570;2023-09-08T14:38:21;7.20;;;4.00;;
75220;SDS011;63802;53.232;6.570;2023-09-08T14:40:54;5.28;;;3.70;;